Time;durP1;ratioP1;P1;durP2;ratioP2;P2;SDS_P1;SDS_P2;PMS_P1;PMS_P2;Temp;Humidity;BMP_temperature;BMP_pressure;BME280_temperature;BME280_humidity;BME280_pressure;Samples;Min_cycle;Max_cycle;Signal;HPM_P1;HPM_P2
2022/12/24 00:02:08;;;;;;;28.40;12.40;;;6.50;99.90;;;;;;5109862;27;20043;-84
2022/12/24 00:04:34;;;;;;;25.60;12.15;;;6.50;99.90;;;;;;5110765;27;20081;-84
2022/12/24 00:06:59;;;;;;;27.00;12.85;;;6.50;99.90;;;;;;5094034;27;20047;-84
2022/12/24 00:09:25;;;;;;;27.50;12.77;;;7.30;99.90;;;;;;5109592;27;20035;-84
2022/12/24 00:11:51;;;;;;;26.35;12.73;;;6.60;99.90;;;;;;5094811;27;20047;-84
2022/12/24 00:14:16;;;;;;;24.40;12.90;;;7.10;99.90;;;;;;5108646;27;20058;-84
2022/12/24 00:16:42;;;;;;;26.33;13.48;;;7.80;99.90;;;;;;5111059;27;20444;-84
2022/12/24 00:19:08;;;;;;;22.92;13.18;;;6.50;99.90;;;;;;5109625;27;20644;-83
2022/12/24 00:21:33;;;;;;;23.08;12.25;;;7.60;99.90;;;;;;5094018;27;20420;-85
2022/12/24 00:24:02;;;;;;;25.95;12.20;;;7.10;99.90;;;;;;5110756;27;20070;-83
2022/12/24 00:26:28;;;;;;;29.85;13.15;;;6.50;99.90;;;;;;5128132;27;20054;-84
2022/12/24 00:28:54;;;;;;;28.20;12.70;;;7.50;99.90;;;;;;5129854;27;20039;-83
2022/12/24 00:31:19;;;;;;;22.38;13.57;;;6.50;99.90;;;;;;5127325;27;20101;-84
2022/12/24 00:33:46;;;;;;;27.25;13.63;;;7.10;99.90;;;;;;5111376;27;20085;-84
2022/12/24 00:36:12;;;;;;;30.35;13.70;;;6.50;99.90;;;;;;5091763;27;20059;-84
2022/12/24 00:38:38;;;;;;;24.95;12.48;;;6.50;99.90;;;;;;5093716;27;20089;-84
2022/12/24 00:41:23;;;;;;;23.67;12.80;;;6.80;99.90;;;;;;5128128;27;20474;-83
2022/12/24 00:44:00;;;;;;;23.63;13.13;;;6.50;99.90;;;;;;5092083;27;20043;-84
2022/12/24 00:46:28;;;;;;;26.05;13.18;;;6.50;99.90;;;;;;5111328;27;20043;-84
2022/12/24 00:48:53;;;;;;;23.42;13.27;;;6.50;99.90;;;;;;5092235;27;20367;-83
2022/12/24 00:51:20;;;;;;;36.53;13.98;;;7.50;99.90;;;;;;5098379;27;20049;-84
2022/12/24 00:53:46;;;;;;;21.67;11.57;;;6.50;99.90;;;;;;5115960;27;20038;-84
2022/12/24 00:56:12;;;;;;;33.78;12.63;;;7.60;99.90;;;;;;5115332;27;20401;-83
2022/12/24 00:58:38;;;;;;;27.23;13.23;;;6.60;99.90;;;;;;5128990;27;20043;-84
2022/12/24 01:01:04;;;;;;;36.33;13.50;;;6.70;99.90;;;;;;5091918;27;20047;-84
2022/12/24 01:03:35;;;;;;;27.05;13.05;;;6.50;99.90;;;;;;5094612;27;20047;-83
2022/12/24 01:06:07;;;;;;;21.45;12.90;;;6.50;99.90;;;;;;5126900;27;20039;-83
2022/12/24 01:08:33;;;;;;;23.70;12.40;;;7.80;99.90;;;;;;5110023;27;20072;-84
2022/12/24 01:11:00;;;;;;;20.48;12.18;;;6.60;99.90;;;;;;5108943;27;20043;-84
2022/12/24 01:13:26;;;;;;;23.45;11.77;;;6.50;99.90;;;;;;5109709;27;20070;-83
2022/12/24 01:15:51;;;;;;;18.77;12.15;;;7.20;99.90;;;;;;5076117;27;20090;-84
2022/12/24 01:18:17;;;;;;;21.85;12.27;;;7.60;99.90;;;;;;5108024;27;20074;-84
2022/12/24 01:20:43;;;;;;;24.70;12.48;;;6.50;99.90;;;;;;5129621;27;20046;-84
2022/12/24 01:23:09;;;;;;;26.45;12.80;;;7.60;99.90;;;;;;5126525;27;20047;-84
2022/12/24 01:25:39;;;;;;;27.55;12.90;;;6.50;99.90;;;;;;5110107;27;20490;-84
2022/12/24 01:28:05;;;;;;;24.73;13.05;;;6.50;99.90;;;;;;5127767;27;20419;-84
2022/12/24 01:30:31;;;;;;;23.88;13.25;;;6.80;99.90;;;;;;5127626;27;20050;-84
2022/12/24 01:32:57;;;;;;;22.70;12.10;;;7.50;99.90;;;;;;5109477;27;20057;-84
2022/12/24 01:35:23;;;;;;;20.40;13.23;;;7.60;99.90;;;;;;5125800;27;20138;-84
2022/12/24 01:37:49;;;;;;;21.27;12.68;;;7.00;99.90;;;;;;5110085;27;20083;-84
2022/12/24 01:45:55;;;;;;;25.05;12.90;;;6.90;99.90;;;;;;5108958;27;20096;-84
2022/12/24 01:48:23;;;;;;;24.35;13.07;;;6.50;99.90;;;;;;5090480;27;20108;-84
2022/12/24 01:51:22;;;;;;;26.35;13.93;;;7.40;99.90;;;;;;5110467;27;20104;-85
2022/12/24 01:53:57;;;;;;;23.55;13.15;;;6.60;99.90;;;;;;5090096;27;20681;-84
2022/12/24 01:56:24;;;;;;;24.83;14.23;;;6.60;99.90;;;;;;5107892;27;20559;-84
2022/12/24 01:58:55;;;;;;;36.53;15.77;;;6.60;99.90;;;;;;5092295;27;20266;-85
2022/12/24 02:01:21;;;;;;;27.52;13.50;;;6.60;99.90;;;;;;5106757;27;20037;-85
2022/12/24 02:03:47;;;;;;;27.60;14.85;;;6.50;99.90;;;;;;5092979;27;20035;-85
2022/12/24 02:06:15;;;;;;;26.27;13.88;;;6.60;99.90;;;;;;5090454;27;20501;-84
2022/12/24 02:08:41;;;;;;;27.95;15.70;;;6.60;99.90;;;;;;5108626;27;20490;-85
2022/12/24 02:11:19;;;;;;;23.52;14.07;;;6.50;99.90;;;;;;5091595;27;20043;-85
2022/12/24 02:13:49;;;;;;;24.02;14.23;;;6.90;99.90;;;;;;5108253;27;20105;-85
2022/12/24 02:16:37;;;;;;;23.52;13.70;;;6.70;99.90;;;;;;5115451;27;20095;-83
2022/12/24 02:19:31;;;;;;;29.83;13.02;;;6.60;99.90;;;;;;5110948;27;20039;-84
2022/12/24 02:22:04;;;;;;;24.73;13.38;;;6.60;99.90;;;;;;5062908;27;20406;-84
2022/12/24 02:25:07;;;;;;;21.27;10.88;;;6.60;99.90;;;;;;5092049;27;20035;-85
2022/12/24 02:27:44;;;;;;;21.08;12.75;;;6.60;99.90;;;;;;5089348;27;20494;-84
2022/12/24 02:30:19;;;;;;;24.92;14.52;;;6.60;99.90;;;;;;5108318;27;20043;-85
2022/12/24 02:32:56;;;;;;;31.63;14.77;;;6.60;99.90;;;;;;5108458;27;20073;-84
2022/12/24 02:35:48;;;;;;;24.75;14.30;;;6.60;99.90;;;;;;5106698;27;20138;-84
2022/12/24 02:38:30;;;;;;;25.52;12.90;;;6.60;99.90;;;;;;5109656;27;20526;-84
2022/12/24 02:41:06;;;;;;;28.45;13.98;;;6.60;99.90;;;;;;5107502;27;20085;-84
2022/12/24 02:43:38;;;;;;;25.77;14.10;;;6.60;99.90;;;;;;5090420;27;20046;-85
2022/12/24 02:46:12;;;;;;;25.40;13.85;;;6.60;99.90;;;;;;5091912;27;20055;-85
2022/12/24 02:48:42;;;;;;;22.73;12.85;;;6.60;99.90;;;;;;5106227;27;20058;-84
2022/12/24 02:51:09;;;;;;;25.65;13.57;;;6.60;99.90;;;;;;5093524;27;20039;-84
2022/12/24 02:53:36;;;;;;;21.90;13.13;;;6.60;99.90;;;;;;5089554;27;20035;-84
2022/12/24 02:56:10;;;;;;;30.60;15.10;;;6.60;99.90;;;;;;5108645;27;20050;-85
2022/12/24 02:58:57;;;;;;;26.92;13.82;;;6.60;99.90;;;;;;5108590;27;20104;-84
2022/12/24 03:01:22;;;;;;;25.92;13.65;;;6.60;99.90;;;;;;5106986;27;20476;-84
2022/12/24 03:04:39;;;;;;;38.95;16.45;;;7.10;99.90;;;;;;5092020;27;20126;-85
2022/12/24 03:07:28;;;;;;;31.50;15.68;;;6.60;99.90;;;;;;5090318;27;20146;-85
2022/12/24 03:10:28;;;;;;;27.88;14.85;;;6.80;99.90;;;;;;5107234;27;20049;-85
2022/12/24 03:13:00;;;;;;;28.98;14.85;;;6.70;99.90;;;;;;5078112;28;20211;-84
2022/12/24 03:15:28;;;;;;;30.13;15.52;;;6.70;99.90;;;;;;5107099;27;20515;-84
2022/12/24 03:17:58;;;;;;;25.65;15.32;;;6.70;99.90;;;;;;5107779;28;20479;-85
2022/12/24 03:20:52;;;;;;;26.65;15.00;;;7.20;99.90;;;;;;5109458;27;20039;-85
2022/12/24 03:23:18;;;;;;;;;;;6.90;99.90;;;;;;5112908;27;20498;-84
2022/12/24 03:25:44;;;;;;;28.13;14.52;;;6.70;99.90;;;;;;5116463;27;19933;-84
2022/12/24 03:28:13;;;;;;;27.98;14.98;;;7.40;99.90;;;;;;5113142;27;20130;-85
2022/12/24 03:30:41;;;;;;;29.15;15.50;;;6.80;99.90;;;;;;5115077;27;20049;-85
2022/12/24 03:33:08;;;;;;;29.05;15.57;;;6.80;99.90;;;;;;5114739;27;20043;-85
2022/12/24 03:35:33;;;;;;;27.27;14.93;;;6.90;99.90;;;;;;5077318;28;20112;-84
2022/12/24 03:37:59;;;;;;;37.80;16.15;;;6.90;99.90;;;;;;5115392;28;20028;-84
2022/12/24 03:40:25;;;;;;;29.80;15.43;;;7.00;99.90;;;;;;5098600;28;20047;-83
2022/12/24 03:42:50;;;;;;;27.80;14.13;;;7.00;99.90;;;;;;5114916;28;20044;-85
2022/12/24 03:45:16;;;;;;;32.17;15.10;;;7.10;99.90;;;;;;5076127;28;20040;-85
2022/12/24 03:47:42;;;;;;;25.95;13.25;;;7.20;99.90;;;;;;5095368;28;20079;-84
2022/12/24 03:50:08;;;;;;;26.38;13.70;;;8.40;99.90;;;;;;5077448;28;20051;-84
2022/12/24 03:52:34;;;;;;;23.63;13.23;;;7.30;99.90;;;;;;5110236;28;20048;-85
2022/12/24 03:54:59;;;;;;;24.40;13.45;;;8.10;99.90;;;;;;5077274;28;20104;-85
2022/12/24 03:57:25;;;;;;;24.70;13.10;;;7.40;99.90;;;;;;5109681;28;20402;-85
2022/12/24 03:59:51;;;;;;;22.08;11.38;;;8.30;99.90;;;;;;5094699;28;20044;-85
2022/12/24 04:02:17;;;;;;;25.55;10.73;;;8.50;99.90;;;;;;5075403;28;20050;-85
2022/12/24 04:04:42;;;;;;;20.33;9.90;;;7.90;99.90;;;;;;5095030;28;20044;-85
2022/12/24 04:07:08;;;;;;;22.77;10.07;;;7.80;99.90;;;;;;5092698;28;20091;-86
2022/12/24 04:09:34;;;;;;;17.83;8.98;;;7.70;99.90;;;;;;5110222;28;20040;-85
2022/12/24 04:12:00;;;;;;;19.05;8.82;;;7.70;99.90;;;;;;5110604;28;20167;-85
2022/12/24 04:14:25;;;;;;;19.77;8.05;;;8.00;99.90;;;;;;5075501;28;20124;-86
2022/12/24 04:16:51;;;;;;;32.30;10.10;;;8.00;99.90;;;;;;5111170;28;20039;-86
2022/12/24 04:19:17;;;;;;;19.98;7.80;;;8.10;99.90;;;;;;5110660;28;20138;-85
2022/12/24 04:21:42;;;;;;;28.35;8.43;;;7.70;99.90;;;;;;5095430;28;20055;-85
2022/12/24 04:24:08;;;;;;;20.30;7.32;;;7.80;99.90;;;;;;5092507;28;20054;-86
2022/12/24 04:26:34;;;;;;;13.90;6.63;;;7.80;99.90;;;;;;5111330;28;20505;-86
2022/12/24 04:29:00;;;;;;;20.38;8.00;;;8.00;99.90;;;;;;5093615;28;20043;-86
2022/12/24 04:31:26;;;;;;;23.05;7.82;;;7.80;99.90;;;;;;5110023;28;20097;-84
2022/12/24 04:33:52;;;;;;;19.08;7.07;;;7.80;99.90;;;;;;5106090;28;20502;-86
2022/12/24 04:36:19;;;;;;;22.58;7.57;;;7.80;99.90;;;;;;5122927;27;20059;-84
2022/12/24 04:38:46;;;;;;;21.42;6.50;;;8.50;99.90;;;;;;5111167;27;20047;-85
2022/12/24 04:41:15;;;;;;;26.83;7.03;;;8.00;99.90;;;;;;5091881;27;20051;-85
2022/12/24 04:43:41;;;;;;;27.98;7.18;;;8.00;99.90;;;;;;5094434;27;20039;-87
2022/12/24 04:46:10;;;;;;;42.50;7.65;;;7.90;99.90;;;;;;5092547;27;20549;-86
2022/12/24 04:48:36;;;;;;;32.28;8.32;;;7.90;99.90;;;;;;5110281;27;20078;-86
2022/12/24 04:51:04;;;;;;;29.15;6.72;;;8.00;99.90;;;;;;5093544;27;20051;-86
2022/12/24 04:53:31;;;;;;;41.08;6.65;;;8.00;99.90;;;;;;5092413;27;20054;-86
2022/12/24 04:55:57;;;;;;;27.35;5.72;;;8.70;99.90;;;;;;5094649;27;20127;-86
2022/12/24 04:58:23;;;;;;;44.72;6.80;;;8.10;99.90;;;;;;5095154;27;20118;-84
2022/12/24 05:00:49;;;;;;;45.15;5.10;;;8.80;99.90;;;;;;5085269;27;20066;-84
2022/12/24 05:03:14;;;;;;;41.10;4.80;;;8.10;99.90;;;;;;5082728;27;20482;-85
2022/12/24 05:05:40;;;;;;;39.65;4.38;;;8.10;99.90;;;;;;5078013;27;20039;-86
2022/12/24 05:08:06;;;;;;;37.08;4.25;;;8.50;99.90;;;;;;5111038;27;20043;-86
2022/12/24 05:10:32;;;;;;;37.15;4.60;;;8.10;99.90;;;;;;5091703;27;20039;-85
2022/12/24 05:12:57;;;;;;;28.63;4.10;;;8.10;99.90;;;;;;5109930;27;20131;-86
2022/12/24 05:15:23;;;;;;;39.15;5.40;;;8.10;99.90;;;;;;5092761;27;20047;-85
2022/12/24 05:17:49;;;;;;;39.85;5.10;;;8.10;99.90;;;;;;5077414;27;20046;-85
2022/12/24 05:20:15;;;;;;;41.05;5.03;;;8.60;99.90;;;;;;5091877;27;20508;-86
2022/12/24 05:28:23;;;;;;;28.45;4.75;;;8.10;99.90;;;;;;5108893;27;20045;-86
2022/12/24 05:30:49;;;;;;;36.95;5.07;;;8.20;99.90;;;;;;5095147;27;20031;-85
2022/12/24 05:33:14;;;;;;;46.85;5.75;;;8.40;99.90;;;;;;5075838;27;20487;-86
2022/12/24 05:35:40;;;;;;;43.25;5.25;;;8.30;99.90;;;;;;5075246;27;20062;-85
2022/12/24 05:38:06;;;;;;;35.78;5.90;;;8.30;99.90;;;;;;5074918;27;20134;-84
2022/12/24 05:40:31;;;;;;;43.00;6.13;;;8.30;99.90;;;;;;5091523;27;20040;-84
2022/12/24 05:42:57;;;;;;;49.20;7.40;;;8.30;99.90;;;;;;5109794;27;20091;-84
2022/12/24 05:45:23;;;;;;;48.08;6.10;;;8.30;99.90;;;;;;5091432;27;20046;-85
2022/12/24 05:47:48;;;;;;;41.83;5.60;;;8.30;99.90;;;;;;5110174;27;20046;-85
2022/12/24 05:50:14;;;;;;;45.33;5.03;;;8.30;99.90;;;;;;5092160;27;20138;-84
2022/12/24 05:52:40;;;;;;;29.10;3.58;;;9.10;99.90;;;;;;5092280;27;20522;-86
2022/12/24 05:55:06;;;;;;;45.50;4.80;;;8.30;99.90;;;;;;5091628;27;20035;-85
2022/12/24 05:57:31;;;;;;;63.40;7.28;;;8.30;99.90;;;;;;5109058;27;20074;-85
2022/12/24 05:59:57;;;;;;;42.45;5.07;;;8.40;99.90;;;;;;5091730;27;20461;-85
2022/12/24 06:02:23;;;;;;;38.05;6.22;;;8.30;99.90;;;;;;5108166;27;20069;-86
2022/12/24 06:04:48;;;;;;;44.08;5.05;;;8.30;99.90;;;;;;5110152;27;20078;-85
2022/12/24 06:07:14;;;;;;;55.22;7.18;;;8.30;99.90;;;;;;5107766;27;20103;-85
2022/12/24 06:09:40;;;;;;;43.05;6.20;;;9.50;99.90;;;;;;5092103;27;20039;-86
2022/12/24 06:12:06;;;;;;;49.75;5.60;;;8.30;99.90;;;;;;5091230;27;20047;-86
2022/12/24 06:14:31;;;;;;;52.10;7.30;;;8.30;99.90;;;;;;5108717;27;20043;-86
2022/12/24 06:16:57;;;;;;;50.67;7.15;;;8.80;99.90;;;;;;5091258;27;20474;-85
2022/12/24 06:19:23;;;;;;;43.97;5.35;;;8.30;99.90;;;;;;5074422;27;20127;-86
2022/12/24 06:21:48;;;;;;;52.97;6.78;;;8.30;99.90;;;;;;5094821;27;20074;-84
2022/12/24 06:24:14;;;;;;;42.55;6.68;;;8.30;99.90;;;;;;5118069;27;20055;-84
2022/12/24 06:26:40;;;;;;;39.38;4.82;;;8.40;99.90;;;;;;5098716;27;20043;-86
2022/12/24 06:29:06;;;;;;;37.60;6.22;;;8.70;99.90;;;;;;5108691;27;20393;-85
2022/12/24 06:31:31;;;;;;;47.17;5.82;;;8.50;99.90;;;;;;5091805;27;20039;-86
2022/12/24 06:33:57;;;;;;;47.45;6.15;;;8.80;99.90;;;;;;5091225;27;20896;-85
2022/12/24 06:36:24;;;;;;;38.72;5.03;;;8.30;99.90;;;;;;5073363;27;20051;-86
2022/12/24 06:38:51;;;;;;;45.92;4.85;;;8.40;99.90;;;;;;5091684;27;20065;-85
2022/12/24 06:41:18;;;;;;;52.28;8.50;;;8.40;99.90;;;;;;5107072;27;20134;-85
2022/12/24 06:43:48;;;;;;;51.90;7.90;;;8.40;99.90;;;;;;5074554;27;20509;-84
2022/12/24 06:46:15;;;;;;;52.25;6.60;;;8.70;99.90;;;;;;5107418;27;20043;-85
2022/12/24 06:48:43;;;;;;;46.80;5.30;;;8.40;99.90;;;;;;5107748;27;20134;-83
2022/12/24 06:51:08;;;;;;;39.53;4.40;;;8.40;99.90;;;;;;5091256;27;20039;-85
2022/12/24 06:53:34;;;;;;;52.28;6.38;;;8.40;99.90;;;;;;5107940;27;20122;-84
2022/12/24 06:56:04;;;;;;;42.88;4.82;;;9.40;99.90;;;;;;5106634;27;20215;-85
2022/12/24 06:58:30;;;;;;;54.20;5.20;;;8.40;99.90;;;;;;5090653;27;20080;-84
2022/12/24 07:00:56;;;;;;;47.38;7.10;;;8.40;99.90;;;;;;5074044;27;20078;-85
2022/12/24 07:03:21;;;;;;;34.10;4.50;;;8.40;99.90;;;;;;5073622;27;20045;-85
2022/12/24 07:05:47;;;;;;;37.53;4.57;;;9.10;99.90;;;;;;5090988;27;20036;-85
2022/12/24 07:08:12;;;;;;;43.03;6.80;;;8.70;99.90;;;;;;5090222;27;20474;-85
2022/12/24 07:10:38;;;;;;;55.42;5.63;;;8.40;99.90;;;;;;5090143;27;20051;-85
2022/12/24 07:13:04;;;;;;;39.70;5.05;;;8.90;99.90;;;;;;5090166;27;20078;-84
2022/12/24 07:15:30;;;;;;;53.63;6.25;;;9.70;99.90;;;;;;5090347;28;20043;-84
2022/12/24 07:17:55;;;;;;;49.85;5.10;;;8.50;99.90;;;;;;5090537;28;20058;-83
2022/12/24 07:20:21;;;;;;;47.55;5.75;;;9.40;99.90;;;;;;5073175;28;20081;-83
2022/12/24 07:22:46;;;;;;;37.42;4.72;;;8.50;99.90;;;;;;5074091;28;20120;-83
2022/12/24 07:25:12;;;;;;;39.80;5.20;;;8.50;99.90;;;;;;5073294;28;20045;-83
2022/12/24 07:27:38;;;;;;;26.95;4.07;;;9.70;99.90;;;;;;5107500;28;20058;-83
2022/12/24 07:30:05;;;;;;;56.33;6.28;;;8.50;99.90;;;;;;5090255;28;20402;-84
2022/12/24 07:32:30;;;;;;;46.92;6.75;;;8.50;99.90;;;;;;5106525;28;20063;-84
2022/12/24 07:34:56;;;;;;;36.47;4.65;;;8.70;99.90;;;;;;5106343;27;20054;-85
2022/12/24 07:37:22;;;;;;;35.03;4.47;;;8.50;99.90;;;;;;5090879;28;20044;-84
2022/12/24 07:39:47;;;;;;;46.28;5.30;;;8.40;99.90;;;;;;5107117;28;20065;-84
2022/12/24 07:42:13;;;;;;;48.22;6.28;;;8.40;99.90;;;;;;5090272;28;20129;-83
2022/12/24 07:44:39;;;;;;;45.80;4.40;;;8.30;99.90;;;;;;5091360;28;20092;-84
2022/12/24 07:47:04;;;;;;;34.38;3.55;;;8.30;99.90;;;;;;5097058;28;20035;-81
2022/12/24 07:49:30;;;;;;;39.67;4.88;;;9.40;99.90;;;;;;5114266;28;20051;-83
2022/12/24 07:51:56;;;;;;;45.25;7.18;;;8.20;99.90;;;;;;5092901;28;20031;-83
2022/12/24 07:54:21;;;;;;;49.67;5.70;;;8.10;99.90;;;;;;5108358;28;20097;-82
2022/12/24 07:56:47;;;;;;;35.70;3.90;;;8.10;99.90;;;;;;5107370;28;20043;-82
2022/12/24 07:59:13;;;;;;;31.58;5.28;;;8.10;99.90;;;;;;5106877;28;20047;-82
2022/12/24 08:01:39;;;;;;;57.40;6.75;;;8.10;99.90;;;;;;5074172;28;20035;-82
2022/12/24 08:04:05;;;;;;;50.58;6.15;;;8.10;99.90;;;;;;5089743;28;20494;-82
2022/12/24 08:06:31;;;;;;;45.08;5.40;;;8.50;99.90;;;;;;5126719;27;20035;-82
2022/12/24 08:08:57;;;;;;;38.92;5.30;;;8.10;99.90;;;;;;5110433;27;20378;-82
2022/12/24 08:11:23;;;;;;;45.63;5.95;;;8.10;99.90;;;;;;5111434;27;20100;-83
2022/12/24 08:13:48;;;;;;;38.47;6.20;;;8.10;99.90;;;;;;5093774;27;20047;-83
2022/12/24 08:16:14;;;;;;;33.60;6.40;;;8.10;99.90;;;;;;5111199;27;20050;-83
2022/12/24 08:18:40;;;;;;;42.22;5.13;;;8.20;99.90;;;;;;5110589;27;20446;-82
2022/12/24 08:21:07;;;;;;;48.38;7.35;;;8.20;99.90;;;;;;5110554;27;20398;-83
2022/12/24 08:23:33;;;;;;;53.47;6.90;;;8.20;99.90;;;;;;5110456;27;20470;-82
2022/12/24 08:25:59;;;;;;;43.85;6.05;;;8.20;99.90;;;;;;5093977;27;20078;-81
2022/12/24 08:28:25;;;;;;;44.28;4.50;;;8.20;99.90;;;;;;5110812;27;20075;-81
2022/12/24 08:30:51;;;;;;;41.10;5.00;;;8.50;99.90;;;;;;5110224;27;20039;-85
2022/12/24 08:33:17;;;;;;;43.97;5.18;;;8.20;99.90;;;;;;5111085;27;20035;-83
2022/12/24 08:35:47;;;;;;;35.88;5.13;;;8.20;99.90;;;;;;5076721;27;20494;-84
2022/12/24 08:38:13;;;;;;;42.35;4.82;;;9.40;99.90;;;;;;5094008;27;20043;-87
2022/12/24 08:40:39;;;;;;;46.30;6.95;;;8.30;99.90;;;;;;5110427;27;20039;-88
2022/12/24 08:43:04;;;;;;;37.58;6.60;;;8.60;99.90;;;;;;5110395;27;20042;-85
2022/12/24 08:45:30;;;;;;;45.67;6.28;;;8.40;99.90;;;;;;5093351;27;20072;-84
2022/12/24 08:50:45;;;;;;;33.60;5.50;;;8.50;99.90;;;;;;5069169;22;20061;-83
2022/12/24 08:53:10;;;;;;;41.97;5.28;;;8.50;99.90;;;;;;5018187;28;20055;-84
2022/12/24 08:55:36;;;;;;;40.45;5.35;;;8.50;99.90;;;;;;5033812;28;20478;-79
2022/12/24 08:58:02;;;;;;;41.13;6.57;;;8.50;99.90;;;;;;5018461;28;20048;-82
2022/12/24 09:00:28;;;;;;;48.60;5.18;;;8.50;99.90;;;;;;5016496;28;20087;-87
2022/12/24 09:02:55;;;;;;;38.78;4.57;;;8.50;99.90;;;;;;5018426;28;20128;-82
2022/12/24 09:05:21;;;;;;;45.80;5.53;;;8.70;99.90;;;;;;5033069;28;20414;-83
2022/12/24 09:07:46;;;;;;;44.90;6.95;;;8.70;99.90;;;;;;5034947;28;20041;-83
2022/12/24 09:10:12;;;;;;;39.95;4.90;;;8.70;99.90;;;;;;5033843;28;20041;-83
2022/12/24 09:12:38;;;;;;;39.33;8.13;;;9.10;99.90;;;;;;5001062;28;20079;-83
2022/12/24 09:15:06;;;;;;;40.05;5.63;;;8.70;99.90;;;;;;5034899;28;20040;-83
2022/12/24 09:17:32;;;;;;;41.72;5.32;;;8.70;99.90;;;;;;5032986;28;20077;-83
2022/12/24 09:19:58;;;;;;;30.67;4.63;;;8.80;99.90;;;;;;5052009;28;20049;-83
2022/12/24 09:22:24;;;;;;;35.15;4.75;;;9.70;99.90;;;;;;5032906;28;20044;-83
2022/12/24 09:24:49;;;;;;;29.17;4.00;;;8.90;99.90;;;;;;5034433;28;20037;-83
2022/12/24 09:27:15;;;;;;;31.02;4.75;;;8.80;99.90;;;;;;5034223;28;20044;-82
2022/12/24 09:29:41;;;;;;;27.98;4.43;;;8.80;99.90;;;;;;5035307;28;20037;-83
2022/12/24 09:32:07;;;;;;;33.22;6.30;;;8.80;99.90;;;;;;5018299;28;20076;-83
2022/12/24 09:34:36;;;;;;;25.23;5.07;;;8.80;99.90;;;;;;5016406;28;20129;-83
2022/12/24 09:37:04;;;;;;;54.53;5.40;;;8.80;99.90;;;;;;5017955;28;20045;-82
2022/12/24 09:39:30;;;;;;;33.17;5.35;;;8.80;99.90;;;;;;5015808;28;20055;-83
2022/12/24 09:42:26;;;;;;;39.90;5.00;;;8.80;99.90;;;;;;5017983;28;20466;-85
2022/12/24 09:45:04;;;;;;;34.33;4.20;;;8.80;99.90;;;;;;5020559;28;20063;-84
2022/12/24 09:47:45;;;;;;;35.75;4.88;;;8.90;99.90;;;;;;5032503;28;20041;-85
2022/12/24 09:50:29;;;;;;;34.08;4.93;;;8.90;99.90;;;;;;5053323;28;20060;-85
2022/12/24 09:52:57;;;;;;;33.33;5.00;;;8.90;99.90;;;;;;5052421;28;20068;-85
2022/12/24 09:55:29;;;;;;;40.70;4.57;;;8.90;99.90;;;;;;5053251;28;20182;-84
2022/12/24 09:57:58;;;;;;;36.28;4.97;;;9.80;99.90;;;;;;5053971;28;20047;-85
2022/12/24 10:00:35;;;;;;;24.40;4.43;;;8.90;99.90;;;;;;5035334;28;20051;-84
2022/12/24 10:03:01;;;;;;;40.42;4.65;;;9.00;99.90;;;;;;5037380;28;20043;-84
2022/12/24 10:05:40;;;;;;;46.55;5.70;;;8.90;99.90;;;;;;5018955;28;20479;-84
2022/12/24 10:08:18;;;;;;;38.80;6.90;;;8.90;99.90;;;;;;5053576;28;20040;-85
2022/12/24 10:10:53;;;;;;;39.30;5.82;;;8.90;99.90;;;;;;5036924;28;20494;-84
2022/12/24 10:13:43;;;;;;;41.35;5.50;;;9.00;99.90;;;;;;5052189;28;20036;-85
2022/12/24 10:16:31;;;;;;;38.63;6.22;;;9.00;99.90;;;;;;5037112;28;20230;-85
2022/12/24 10:19:09;;;;;;;35.90;4.53;;;9.10;99.90;;;;;;5053153;28;20491;-85
2022/12/24 10:21:42;;;;;;;46.40;7.45;;;9.10;99.90;;;;;;5036140;28;20044;-84
2022/12/24 10:24:32;;;;;;;40.28;5.45;;;9.10;99.90;;;;;;5058065;28;20045;-84
2022/12/24 10:27:14;;;;;;;45.33;5.38;;;9.20;99.90;;;;;;5057029;28;20381;-83
2022/12/24 10:30:02;;;;;;;41.30;6.32;;;9.20;99.90;;;;;;5056312;28;20574;-82
2022/12/24 10:32:31;;;;;;;43.30;5.20;;;9.30;99.90;;;;;;5072349;28;20077;-83
2022/12/24 10:35:08;;;;;;;45.63;6.28;;;9.40;99.90;;;;;;5068285;28;20131;-84
2022/12/24 10:37:33;;;;;;;33.17;5.05;;;9.50;99.90;;;;;;5035952;28;20041;-83
2022/12/24 10:40:01;;;;;;;36.00;5.30;;;9.50;99.90;;;;;;5069891;28;20125;-84
2022/12/24 10:42:38;;;;;;;34.55;5.38;;;9.70;99.90;;;;;;5052715;28;20227;-83
2022/12/24 10:45:06;;;;;;;45.03;6.43;;;9.70;99.90;;;;;;5053075;28;20372;-83
2022/12/24 10:47:38;;;;;;;42.60;5.55;;;9.60;99.90;;;;;;5069330;28;20037;-83
2022/12/24 10:50:14;;;;;;;26.30;3.70;;;9.70;99.90;;;;;;5035851;28;20056;-83
2022/12/24 10:52:43;;;;;;;34.38;4.13;;;9.70;99.90;;;;;;5050227;28;20036;-85
2022/12/24 10:55:18;;;;;;;32.22;4.15;;;9.70;99.90;;;;;;5051963;28;20044;-84
2022/12/24 10:58:01;;;;;;;26.13;5.13;;;9.70;99.90;;;;;;5052689;28;20048;-84
2022/12/24 11:00:27;;;;;;;;;;;9.30;99.90;;;;;;5034119;28;20045;-84
2022/12/24 11:03:11;;;;;;;34.78;4.90;;;9.70;99.90;;;;;;5052029;28;19920;-83
2022/12/24 11:05:38;;;;;;;31.67;4.18;;;9.80;99.90;;;;;;5033461;28;20040;-83
2022/12/24 11:08:25;;;;;;;37.00;5.32;;;9.80;99.90;;;;;;5035635;28;20052;-83
2022/12/24 11:11:15;;;;;;;38.40;4.45;;;9.80;99.90;;;;;;5035572;28;20088;-84
2022/12/24 11:13:50;;;;;;;26.75;4.72;;;9.80;99.90;;;;;;5049595;28;20048;-84
2022/12/24 11:16:25;;;;;;;39.00;4.75;;;9.80;99.90;;;;;;5051719;28;20041;-83
2022/12/24 11:18:53;;;;;;;38.55;4.93;;;9.80;99.90;;;;;;5034416;28;20106;-84
2022/12/24 11:21:29;;;;;;;28.73;5.25;;;9.80;99.90;;;;;;5050329;28;20123;-84
2022/12/24 11:23:57;;;;;;;27.58;3.95;;;9.90;99.90;;;;;;5051463;28;20055;-84
2022/12/24 11:26:26;;;;;;;27.10;4.82;;;9.80;99.90;;;;;;5032514;28;20049;-84
2022/12/24 11:29:07;;;;;;;26.73;4.07;;;9.90;99.90;;;;;;5051687;28;20052;-84
2022/12/24 11:31:36;;;;;;;25.65;3.25;;;9.90;99.90;;;;;;5050810;28;20066;-84
2022/12/24 11:34:18;;;;;;;33.50;4.85;;;9.90;99.90;;;;;;5034143;28;20132;-84
2022/12/24 11:36:44;;;;;;;22.77;3.40;;;9.90;99.90;;;;;;5051284;28;20053;-84
2022/12/24 11:39:22;;;;;;;31.05;4.60;;;9.90;99.90;;;;;;5032877;28;20127;-83
2022/12/24 11:41:52;;;;;;;34.13;4.80;;;10.50;99.90;;;;;;5052286;28;20568;-83
2022/12/24 11:44:27;;;;;;;24.88;4.65;;;9.90;99.90;;;;;;5021786;28;20056;-83
2022/12/24 11:46:57;;;;;;;30.55;4.10;;;9.90;99.90;;;;;;5037887;28;20057;-84
2022/12/24 11:49:27;;;;;;;20.50;3.60;;;9.90;99.90;;;;;;5055493;28;20499;-84
2022/12/24 11:52:04;;;;;;;32.55;6.38;;;9.90;99.90;;;;;;5036443;28;20055;-84
2022/12/24 11:54:36;;;;;;;31.98;4.55;;;9.90;99.90;;;;;;5055237;28;20084;-84
2022/12/24 11:57:03;;;;;;;25.40;4.15;;;9.90;99.90;;;;;;5053709;28;20044;-85
2022/12/24 11:59:39;;;;;;;18.92;3.65;;;9.90;99.90;;;;;;5055498;28;20129;-79
2022/12/24 12:02:17;;;;;;;23.27;4.10;;;10.00;99.90;;;;;;5055837;28;20040;-84
2022/12/24 12:04:47;;;;;;;22.80;3.33;;;10.00;99.90;;;;;;5052845;28;20040;-81
2022/12/24 12:07:21;;;;;;;20.50;3.00;;;10.00;99.90;;;;;;5073273;28;20050;-83
2022/12/24 12:09:51;;;;;;;22.13;5.32;;;9.90;99.90;;;;;;5071343;28;20106;-85
2022/12/24 12:12:23;;;;;;;31.33;4.57;;;10.00;99.90;;;;;;5054832;28;20537;-83
2022/12/24 12:14:53;;;;;;;31.40;4.28;;;10.00;99.90;;;;;;5072053;28;20123;-83
2022/12/24 12:17:31;;;;;;;33.08;4.85;;;10.00;99.90;;;;;;5052904;28;20045;-82
2022/12/24 12:20:03;;;;;;;20.98;4.60;;;10.00;99.90;;;;;;5072415;28;20048;-84
2022/12/24 12:22:49;;;;;;;19.40;4.37;;;9.90;99.90;;;;;;5052366;28;20124;-86
2022/12/24 12:25:30;;;;;;;25.95;4.35;;;9.90;99.90;;;;;;5073266;28;20123;-88
2022/12/24 12:27:59;;;;;;;21.98;3.72;;;9.90;99.90;;;;;;5024628;28;20052;-83
2022/12/24 12:30:25;;;;;;;20.73;4.00;;;9.90;99.90;;;;;;5052859;28;20072;-83
2022/12/24 12:33:10;;;;;;;19.80;3.28;;;9.90;99.90;;;;;;5055529;28;20045;-83
2022/12/24 12:35:39;;;;;;;23.83;4.72;;;9.90;99.90;;;;;;5053224;28;20057;-83
2022/12/24 12:38:20;;;;;;;18.10;4.35;;;9.80;99.90;;;;;;5054289;28;20041;-79
2022/12/24 12:40:52;;;;;;;18.90;3.60;;;9.90;99.90;;;;;;5055028;28;20044;-82
2022/12/24 12:43:35;;;;;;;20.13;3.70;;;9.80;99.90;;;;;;5035619;28;20044;-82
2022/12/24 12:46:09;;;;;;;26.80;5.90;;;9.80;99.90;;;;;;5038791;28;20049;-84
2022/12/24 12:49:12;;;;;;;18.05;3.28;;;9.80;99.90;;;;;;5055516;28;20041;-85
2022/12/24 12:52:02;;;;;;;21.73;3.60;;;9.90;99.90;;;;;;5039219;28;20052;-86
2022/12/24 12:54:50;;;;;;;18.80;3.55;;;9.90;99.90;;;;;;5041364;28;20102;-84
2022/12/24 12:57:21;;;;;;;23.38;4.15;;;9.90;99.90;;;;;;5057003;28;20048;-80
2022/12/24 12:59:54;;;;;;;20.90;5.88;;;9.90;99.90;;;;;;5057465;28;20132;-83
2022/12/24 13:03:05;;;;;;;25.92;3.35;;;9.90;99.90;;;;;;5045164;28;20094;-83
2022/12/24 13:05:34;;;;;;;25.13;4.32;;;10.10;99.90;;;;;;5014790;28;20095;-87
2022/12/24 13:08:00;;;;;;;28.63;4.13;;;10.00;99.90;;;;;;5075779;28;20064;-90
2022/12/24 13:10:55;;;;;;;29.02;4.90;;;10.00;99.90;;;;;;5075631;28;20044;-90
2022/12/24 13:13:39;;;;;;;25.25;4.50;;;10.00;99.90;;;;;;5070583;28;20052;-88